Time;durP1;ratioP1;P1;durP2;ratioP2;P2;SDS_P1;SDS_P2;PMS_P1;PMS_P2;Temp;Humidity;BMP_temperature;BMP_pressure;BME280_temperature;BME280_humidity;BME280_pressure;Samples;Min_cycle;Max_cycle;Signal;HPM_P1;HPM_P2
2022/10/30 00:00:55;;;;;;;25.83;11.77;;;;;;;17.27;89.76;100934.00;5056649;28;20220;-62
2022/10/30 00:03:23;;;;;;;22.20;11.93;;;;;;;17.28;89.09;100928.47;5056993;28;20200;-62
2022/10/30 00:05:51;;;;;;;21.10;11.63;;;;;;;17.26;89.50;100918.91;5051662;28;20258;-62
2022/10/30 00:08:21;;;;;;;23.60;11.43;;;;;;;17.26;89.91;100929.63;5063442;28;20264;-62
2022/10/30 00:10:50;;;;;;;20.93;11.80;;;;;;;17.19;90.19;100923.34;5053476;28;20265;-62
2022/10/30 00:13:20;;;;;;;21.30;10.50;;;;;;;17.21;90.37;100915.97;5061524;28;20235;-63
2022/10/30 00:15:49;;;;;;;23.03;11.67;;;;;;;17.22;90.41;100912.28;5064136;28;20210;-62
2022/10/30 00:18:17;;;;;;;20.10;11.33;;;;;;;17.17;90.96;100911.97;5060076;28;20293;-62
2022/10/30 00:20:45;;;;;;;20.60;11.87;;;;;;;17.04;91.53;100909.06;5065191;28;20900;-62
2022/10/30 00:23:13;;;;;;;19.00;11.00;;;;;;;17.00;92.38;100916.63;5061981;28;20230;-63
2022/10/30 00:25:40;;;;;;;19.90;11.03;;;;;;;16.98;93.42;100909.75;5059046;28;20239;-62
2022/10/30 00:28:08;;;;;;;21.07;10.97;;;;;;;17.01;93.25;100909.41;5064816;28;20211;-62
2022/10/30 00:30:37;;;;;;;19.10;11.20;;;;;;;17.05;92.69;100913.41;5059438;28;20266;-62
2022/10/30 00:33:08;;;;;;;21.97;11.07;;;;;;;17.04;92.08;100903.72;5055625;28;20653;-62
2022/10/30 00:35:36;;;;;;;31.10;12.10;;;;;;;17.04;92.53;100906.38;5068227;28;20229;-62
2022/10/30 00:38:03;;;;;;;19.83;11.33;;;;;;;17.06;92.38;100909.72;5055615;28;20231;-61
2022/10/30 00:40:31;;;;;;;23.50;10.80;;;;;;;17.08;92.38;100905.00;5057326;28;20215;-62
2022/10/30 00:42:59;;;;;;;18.03;10.97;;;;;;;17.07;92.15;100898.81;5055051;28;20212;-62
2022/10/30 00:45:26;;;;;;;22.53;11.00;;;;;;;17.08;91.83;100905.00;5062308;28;20264;-62
2022/10/30 00:47:59;;;;;;;20.23;11.73;;;;;;;17.07;91.44;100904.16;5064266;28;20208;-62
2022/10/30 00:50:31;;;;;;;23.00;11.70;;;;;;;17.07;90.90;100903.31;5064756;28;20200;-65
2022/10/30 00:53:05;;;;;;;20.53;10.83;;;;;;;17.12;90.59;100900.97;5064073;28;20208;-63
2022/10/30 00:55:37;;;;;;;19.80;10.50;;;;;;;17.11;90.56;100899.28;5054258;28;20757;-63
2022/10/30 00:58:09;;;;;;;22.80;11.07;;;;;;;17.09;90.91;100901.31;5056531;28;20239;-63
2022/10/30 01:00:40;;;;;;;26.10;10.90;;;;;;;17.09;90.87;100898.63;5057014;28;20218;-63
2022/10/30 01:03:09;;;;;;;19.80;10.73;;;;;;;17.14;90.73;100905.13;5059985;28;20214;-64
2022/10/30 01:05:38;;;;;;;28.63;10.90;;;;;;;17.13;90.36;100891.91;5052197;28;20208;-64
2022/10/30 01:08:06;;;;;;;20.23;10.53;;;;;;;17.15;90.71;100892.56;5059213;28;20229;-62
2022/10/30 01:10:33;;;;;;;19.87;11.13;;;;;;;17.13;90.20;100890.06;5059168;28;20645;-62
2022/10/30 01:13:02;;;;;;;20.33;10.57;;;;;;;17.15;90.21;100892.56;5065192;28;20276;-62
2022/10/30 01:15:35;;;;;;;16.67;10.60;;;;;;;17.17;89.92;100885.16;5059630;28;20207;-62
2022/10/30 01:18:20;;;;;;;22.47;10.20;;;;;;;17.11;90.42;100885.91;5065201;28;20737;-62
2022/10/30 01:21:07;;;;;;;24.70;11.23;;;;;;;17.06;91.53;100885.63;5051311;28;20661;-62
2022/10/30 01:23:44;;;;;;;22.03;11.83;;;;;;;17.10;91.90;100890.41;5065192;28;20203;-61
2022/10/30 01:26:23;;;;;;;21.80;11.10;;;;;;;17.13;92.00;100884.72;5055999;28;20262;-62
2022/10/30 01:29:07;;;;;;;26.30;11.87;;;;;;;17.11;92.28;100884.06;5061515;28;20250;-62
2022/10/30 01:31:49;;;;;;;23.00;11.67;;;;;;;17.13;92.02;100879.34;5067734;28;20206;-62
2022/10/30 01:34:32;;;;;;;19.97;10.87;;;;;;;17.16;92.08;100881.66;5055516;28;20264;-62
2022/10/30 01:37:04;;;;;;;19.63;11.87;;;;;;;17.15;92.59;100876.50;5055442;28;20262;-63
2022/10/30 01:39:35;;;;;;;23.97;10.80;;;;;;;17.14;92.80;100878.34;5053037;28;20262;-63
2022/10/30 01:42:09;;;;;;;23.27;11.03;;;;;;;17.16;92.73;100872.78;5049123;28;20726;-63
2022/10/30 01:44:38;;;;;;;19.63;10.03;;;;;;;17.12;93.35;100874.16;5066678;28;20243;-64
2022/10/30 01:47:22;;;;;;;20.30;10.33;;;;;;;17.11;93.93;100861.78;5058999;28;20541;-64
2022/10/30 01:50:17;;;;;;;21.57;10.57;;;;;;;17.10;94.08;100860.94;5062419;28;20265;-64
2022/10/30 01:52:51;;;;;;;23.07;11.37;;;;;;;17.12;94.27;100863.44;5052559;28;20224;-63
2022/10/30 01:55:33;;;;;;;21.17;10.47;;;;;;;17.11;94.73;100867.97;5052247;28;20208;-64
2022/10/30 01:58:09;;;;;;;21.00;10.20;;;;;;;17.10;94.49;100866.31;5054735;28;20221;-63
2022/10/30 02:00:41;;;;;;;21.17;9.67;;;;;;;17.11;94.23;100872.50;5054592;28;20212;-62
2022/10/30 02:03:09;;;;;;;21.77;10.70;;;;;;;17.11;93.57;100880.53;5054500;28;20257;-63
2022/10/30 02:05:42;;;;;;;16.87;9.23;;;;;;;17.13;93.17;100875.84;5054093;28;20211;-63
2022/10/30 02:08:10;;;;;;;17.50;9.93;;;;;;;17.14;92.96;100878.34;5060698;28;20675;-63
2022/10/30 02:10:38;;;;;;;21.17;10.30;;;;;;;17.15;93.25;100879.19;5055950;28;20211;-62
2022/10/30 02:13:06;;;;;;;26.77;10.87;;;;;;;17.12;93.39;100869.66;5050967;28;20293;-63
2022/10/30 02:15:34;;;;;;;24.83;10.73;;;;;;;17.12;94.03;100869.66;5053173;28;20215;-63
2022/10/30 02:18:02;;;;;;;21.27;10.23;;;;;;;17.16;93.80;100875.44;5061400;28;20215;-63
2022/10/30 02:20:32;;;;;;;21.83;10.60;;;;;;;17.16;94.42;100878.13;5056618;28;20215;-63
2022/10/30 02:22:59;;;;;;;23.03;10.97;;;;;;;17.16;95.53;100875.44;5065145;28;20644;-63
2022/10/30 02:25:27;;;;;;;22.77;10.60;;;;;;;17.16;95.71;100884.31;5065922;28;20284;-63
2022/10/30 02:27:55;;;;;;;18.03;9.57;;;;;;;17.17;95.01;100877.13;5064452;28;20204;-63
2022/10/30 02:30:23;;;;;;;16.07;10.00;;;;;;;17.15;94.54;100874.63;5062225;28;20202;-64
2022/10/30 02:32:51;;;;;;;18.70;9.87;;;;;;;17.17;94.12;100877.13;5067004;28;20591;-63
2022/10/30 02:35:18;;;;;;;20.13;10.20;;;;;;;17.14;94.08;100883.69;5055638;28;21834;-63
2022/10/30 02:37:49;;;;;;;24.57;10.23;;;;;;;17.16;93.70;100888.84;5062391;28;20609;-64
2022/10/30 02:40:17;;;;;;;31.30;11.07;;;;;;;17.16;93.52;100880.81;5063264;28;20228;-64
2022/10/30 02:42:44;;;;;;;25.63;10.43;;;;;;;17.14;93.46;100880.19;5064542;28;20203;-63
2022/10/30 02:45:12;;;;;;;17.93;10.83;;;;;;;17.13;93.71;100875.84;5061423;28;20277;-63
2022/10/30 02:47:40;;;;;;;18.93;10.00;;;;;;;17.10;93.76;100886.91;5057553;28;20265;-63
2022/10/30 02:50:09;;;;;;;19.23;9.67;;;;;;;17.05;94.44;100889.31;5059298;28;20207;-64
2022/10/30 02:52:36;;;;;;;19.47;9.90;;;;;;;17.06;94.09;100886.44;5056392;28;20201;-63
2022/10/30 02:55:06;;;;;;;18.00;9.93;;;;;;;17.05;93.69;100878.59;5066899;28;20222;-63
2022/10/30 02:57:33;;;;;;;20.70;10.50;;;;;;;17.00;94.12;100873.75;5061614;28;20536;-63
2022/10/30 03:00:01;;;;;;;17.90;10.40;;;;;;;16.93;95.34;100867.44;5054279;28;20289;-63
2022/10/30 03:02:29;;;;;;;30.80;10.97;;;;;;;16.91;96.29;100862.28;5060229;28;20633;-63
2022/10/30 03:04:56;;;;;;;20.00;9.53;;;;;;;16.98;95.80;100866.91;5059853;28;20673;-63
2022/10/30 03:07:24;;;;;;;21.37;10.57;;;;;;;16.97;95.38;100868.78;5057017;28;20230;-63
2022/10/30 03:09:53;;;;;;;22.60;10.27;;;;;;;17.00;95.43;100872.91;5055208;28;20368;-63
2022/10/30 03:12:22;;;;;;;19.83;10.40;;;;;;;16.97;95.65;100865.25;5059635;28;20219;-63
2022/10/30 03:14:50;;;;;;;15.40;9.17;;;;;;;16.97;95.94;100867.94;5062865;28;20256;-62
2022/10/30 03:17:17;;;;;;;20.90;10.57;;;;;;;16.93;95.75;100876.31;5065590;28;20261;-63
2022/10/30 03:19:45;;;;;;;19.67;9.70;;;;;;;16.90;95.40;100868.63;5057818;28;20700;-62
2022/10/30 03:22:13;;;;;;;22.10;10.27;;;;;;;16.91;95.28;100880.19;5059450;28;20199;-63
2022/10/30 03:24:40;;;;;;;23.63;10.40;;;;;;;16.90;95.04;100874.00;5065088;28;20656;-63
2022/10/30 03:27:08;;;;;;;20.73;10.40;;;;;;;16.88;94.95;100876.03;5060754;28;20203;-63
2022/10/30 03:29:37;;;;;;;21.03;10.67;;;;;;;16.87;94.91;100871.69;5060045;28;20199;-63
2022/10/30 03:32:09;;;;;;;24.27;9.37;;;;;;;16.87;94.76;100884.25;5058555;28;20269;-64
2022/10/30 03:34:37;;;;;;;19.13;9.50;;;;;;;16.86;94.77;100880.75;5058051;28;20290;-63
2022/10/30 03:37:05;;;;;;;23.23;9.53;;;;;;;16.83;94.48;100877.56;5058879;28;20277;-63
2022/10/30 03:39:32;;;;;;;22.03;10.43;;;;;;;16.84;94.32;100880.06;5073419;28;20226;-63
2022/10/30 03:42:00;;;;;;;21.47;9.30;;;;;;;16.79;94.99;100884.31;5074153;28;20210;-63
2022/10/30 03:44:27;;;;;;;18.00;10.17;;;;;;;16.78;94.66;100882.66;5062405;28;20208;-63
2022/10/30 03:46:57;;;;;;;21.77;10.67;;;;;;;16.76;94.77;100888.16;5057873;28;20276;-63
2022/10/30 03:49:24;;;;;;;19.40;10.30;;;;;;;16.71;95.08;100887.84;5061400;28;20207;-62
2022/10/30 03:51:52;;;;;;;22.33;10.37;;;;;;;16.73;94.76;100896.56;5064829;28;20207;-62
2022/10/30 03:54:20;;;;;;;18.93;9.60;;;;;;;16.71;94.47;100893.22;5060718;28;20207;-61
2022/10/30 03:56:47;;;;;;;30.07;11.73;;;;;;;16.75;93.66;100891.03;5055278;28;20207;-62
2022/10/30 03:59:15;;;;;;;17.67;9.60;;;;;;;16.76;92.93;100890.84;5062790;28;20199;-62
2022/10/30 04:01:42;;;;;;;19.43;10.13;;;;;;;16.76;93.50;100885.50;5066064;28;20208;-62
2022/10/30 04:04:12;;;;;;;18.43;9.87;;;;;;;16.73;93.41;100893.88;5056604;28;20215;-63
2022/10/30 04:06:39;;;;;;;18.50;9.93;;;;;;;16.73;93.96;100890.34;5061948;28;20207;-61
2022/10/30 04:09:07;;;;;;;23.43;11.50;;;;;;;16.71;94.17;100884.38;5058248;28;20207;-63
2022/10/30 04:11:35;;;;;;;26.97;10.87;;;;;;;16.65;94.21;100891.25;5054487;28;20217;-63
2022/10/30 04:14:02;;;;;;;20.70;9.57;;;;;;;16.63;94.39;100895.94;5065993;28;20224;-63
2022/10/30 04:16:30;;;;;;;22.20;9.77;;;;;;;16.61;93.94;100887.28;5057528;28;20260;-64
2022/10/30 04:18:57;;;;;;;15.03;9.27;;;;;;;16.59;93.79;100891.94;5061486;28;20212;-62
2022/10/30 04:21:26;;;;;;;19.67;9.83;;;;;;;16.53;93.83;100890.78;5061015;28;20277;-63
2022/10/30 04:23:54;;;;;;;17.30;9.27;;;;;;;16.53;93.46;100895.34;5062076;28;20280;-62
2022/10/30 04:26:21;;;;;;;21.77;9.73;;;;;;;16.50;93.21;100893.84;5065448;28;20285;-62
2022/10/30 04:28:49;;;;;;;17.97;9.57;;;;;;;16.50;93.07;100891.16;5060994;28;20628;-62
2022/10/30 04:31:16;;;;;;;17.00;10.10;;;;;;;16.51;93.11;100892.00;5057874;28;20203;-63
2022/10/30 04:33:44;;;;;;;26.33;11.07;;;;;;;16.46;93.59;100894.34;5059272;28;20219;-64
2022/10/30 04:36:12;;;;;;;18.43;9.50;;;;;;;16.42;93.94;100903.75;5061706;28;20207;-64
2022/10/30 04:38:41;;;;;;;18.30;9.67;;;;;;;16.39;94.18;100890.72;5058027;28;20216;-63
2022/10/30 04:41:08;;;;;;;17.23;10.17;;;;;;;16.38;92.95;100892.56;5065819;28;20231;-63
2022/10/30 04:43:36;;;;;;;20.27;10.20;;;;;;;16.40;92.71;100895.88;5052286;28;20201;-64
2022/10/30 04:46:05;;;;;;;21.07;10.17;;;;;;;16.37;92.84;100904.25;5058793;28;20270;-65
2022/10/30 04:48:35;;;;;;;24.03;10.43;;;;;;;16.35;92.74;100892.91;5058795;28;20215;-63
2022/10/30 04:51:02;;;;;;;21.27;9.17;;;;;;;16.34;92.36;100887.72;5053004;28;20562;-63
2022/10/30 04:53:30;;;;;;;22.60;9.57;;;;;;;16.37;91.50;100879.34;5056104;28;20264;-63
2022/10/30 04:55:59;;;;;;;16.73;8.53;;;;;;;16.33;91.98;100883.38;5054526;28;20212;-63
2022/10/30 04:58:26;;;;;;;18.23;9.13;;;;;;;16.28;91.63;100886.56;5066997;28;20236;-63
2022/10/30 05:00:54;;;;;;;16.93;8.97;;;;;;;16.29;91.45;100887.41;5053850;28;20286;-63
2022/10/30 05:03:29;;;;;;;15.50;8.90;;;;;;;16.23;91.17;100883.59;5058398;28;20293;-64
2022/10/30 05:05:59;;;;;;;20.13;9.93;;;;;;;16.23;90.66;100885.44;5058904;28;20609;-61
2022/10/30 05:08:27;;;;;;;18.47;9.30;;;;;;;16.16;90.71;100888.00;5054214;28;20239;-63
2022/10/30 05:10:55;;;;;;;16.40;9.57;;;;;;;16.17;90.35;100879.78;5061812;28;20199;-63
2022/10/30 05:13:24;;;;;;;18.50;8.93;;;;;;;16.15;90.38;100887.16;5053410;28;20231;-61
2022/10/30 05:15:54;;;;;;;19.87;9.37;;;;;;;16.11;90.27;100884.97;5068779;28;20653;-62
2022/10/30 05:18:21;;;;;;;22.77;9.17;;;;;;;16.06;90.60;100882.00;5055734;28;20739;-62
2022/10/30 05:20:49;;;;;;;18.97;8.63;;;;;;;16.03;91.14;100883.19;5057869;28;20227;-64
2022/10/30 05:23:17;;;;;;;25.73;9.63;;;;;;;16.04;90.80;100881.34;5062250;28;20207;-63
2022/10/30 05:25:44;;;;;;;19.87;9.07;;;;;;;16.07;90.57;100879.16;5057837;28;20251;-64
2022/10/30 05:28:12;;;;;;;17.63;9.00;;;;;;;16.00;90.68;100870.19;5060264;28;20222;-63
2022/10/30 05:30:41;;;;;;;17.47;9.90;;;;;;;15.95;92.08;100867.16;5067961;28;20199;-63
2022/10/30 05:33:11;;;;;;;17.10;8.80;;;;;;;15.94;92.32;100878.88;5056849;28;20234;-63
2022/10/30 05:35:39;;;;;;;20.27;9.67;;;;;;;15.93;92.57;100882.53;5061995;28;20207;-63
2022/10/30 05:38:07;;;;;;;18.17;9.30;;;;;;;15.92;92.16;100874.72;5058981;28;20290;-63
2022/10/30 05:40:35;;;;;;;21.73;9.87;;;;;;;15.87;92.06;100877.91;5056029;28;20235;-63
2022/10/30 05:43:04;;;;;;;24.63;9.83;;;;;;;15.85;91.67;100879.91;5056627;28;20212;-63
2022/10/30 05:45:32;;;;;;;17.40;9.30;;;;;;;15.82;91.23;100882.09;5052983;28;20207;-63
2022/10/30 05:48:02;;;;;;;20.53;9.83;;;;;;;15.83;91.13;100876.59;5055621;28;20270;-62
2022/10/30 05:50:30;;;;;;;17.00;7.77;;;;;;;15.86;90.62;100881.56;5057658;28;20249;-63
2022/10/30 05:52:59;;;;;;;16.97;8.93;;;;;;;15.83;90.21;100878.44;5056401;28;20208;-63
2022/10/30 05:55:27;;;;;;;20.40;9.60;;;;;;;15.76;90.66;100883.59;5057104;28;20698;-62
2022/10/30 05:57:58;;;;;;;19.27;9.33;;;;;;;15.74;90.61;100888.31;5053052;28;20207;-63
2022/10/30 06:00:28;;;;;;;20.13;9.23;;;;;;;15.68;90.08;100887.16;5056058;28;20769;-63
2022/10/30 06:03:00;;;;;;;19.93;9.70;;;;;;;15.71;90.05;100889.47;5054592;28;20208;-63
2022/10/30 06:05:31;;;;;;;18.77;9.97;;;;;;;15.70;89.83;100892.31;5055410;28;20203;-63
2022/10/30 06:07:59;;;;;;;24.63;10.23;;;;;;;15.63;89.66;100886.84;5053128;28;20650;-62
2022/10/30 06:10:27;;;;;;;24.47;10.57;;;;;;;15.61;89.41;100883.50;5062880;28;20214;-62
2022/10/30 06:12:55;;;;;;;25.93;11.37;;;;;;;15.63;89.25;100886.00;5067303;28;20262;-62
2022/10/30 06:15:24;;;;;;;23.73;10.67;;;;;;;15.68;88.98;100894.31;5060066;28;20246;-64
2022/10/30 06:17:52;;;;;;;20.80;9.90;;;;;;;15.68;88.98;100892.50;5060175;28;20207;-62
2022/10/30 06:20:24;;;;;;;23.10;11.10;;;;;;;15.66;89.54;100897.16;5055146;28;20261;-64
2022/10/30 06:22:56;;;;;;;22.30;10.10;;;;;;;15.68;89.61;100899.66;5062613;28;20691;-63
2022/10/30 06:25:24;;;;;;;21.37;10.93;;;;;;;15.70;89.43;100908.38;5055857;28;20304;-64
2022/10/30 06:27:52;;;;;;;23.50;10.97;;;;;;;15.69;89.75;100904.03;5058352;28;20257;-63
2022/10/30 06:30:20;;;;;;;26.63;11.27;;;;;;;15.70;89.24;100900.34;5059797;28;20203;-63
2022/10/30 06:32:48;;;;;;;23.00;11.17;;;;;;;15.68;89.09;100905.03;5056553;28;20256;-61
2022/10/30 06:35:16;;;;;;;24.07;11.47;;;;;;;15.64;89.53;100906.38;5071505;28;20223;-63
2022/10/30 06:37:49;;;;;;;21.10;11.23;;;;;;;15.63;89.36;100902.03;5056438;28;20668;-63
2022/10/30 06:40:17;;;;;;;18.53;10.53;;;;;;;15.62;89.88;100895.03;5056023;28;20637;-63
2022/10/30 06:42:45;;;;;;;21.63;11.53;;;;;;;15.65;89.94;100900.03;5057473;28;20235;-63
2022/10/30 06:45:14;;;;;;;22.50;12.13;;;;;;;15.69;89.52;100901.34;5052439;28;20215;-62
2022/10/30 06:47:42;;;;;;;19.17;11.10;;;;;;;15.66;89.42;100899.00;5053653;28;20213;-63
2022/10/30 06:50:12;;;;;;;16.90;9.43;;;;;;;15.71;89.20;100900.19;5062048;28;20219;-63
2022/10/30 06:52:40;;;;;;;15.93;9.60;;;;;;;15.68;89.47;100899.66;5055761;28;20657;-63
2022/10/30 06:55:10;;;;;;;15.40;9.47;;;;;;;15.72;89.52;100903.69;5058511;28;20208;-63
2022/10/30 06:57:38;;;;;;;14.93;8.70;;;;;;;15.69;90.30;100906.69;5052727;28;20212;-62
2022/10/30 07:00:08;;;;;;;14.67;8.23;;;;;;;15.71;90.93;100910.88;5054707;28;20211;-63
2022/10/30 07:02:35;;;;;;;13.87;8.60;;;;;;;15.73;90.89;100913.38;5056433;28;20227;-63
2022/10/30 07:05:03;;;;;;;16.53;8.23;;;;;;;15.79;90.35;100912.69;5053657;28;20209;-63
2022/10/30 07:07:31;;;;;;;11.53;7.77;;;;;;;15.81;90.10;100916.03;5054793;28;20644;-63
2022/10/30 07:09:59;;;;;;;13.23;8.10;;;;;;;15.85;90.30;100911.16;5063569;28;20207;-62
2022/10/30 07:12:28;;;;;;;11.07;7.60;;;;;;;15.90;90.62;100912.34;5057963;28;20383;-64
2022/10/30 07:14:55;;;;;;;13.57;8.80;;;;;;;15.93;91.77;100920.00;5057596;28;20220;-62
2022/10/30 07:17:23;;;;;;;12.37;8.50;;;;;;;16.03;91.41;100923.31;5063301;28;20599;-62
2022/10/30 07:19:51;;;;;;;14.80;8.23;;;;;;;16.07;91.52;100919.28;5058619;28;20539;-64
2022/10/30 07:22:18;;;;;;;15.70;9.17;;;;;;;16.10;91.80;100926.94;5058362;28;20226;-62
2022/10/30 07:24:46;;;;;;;16.67;9.17;;;;;;;16.11;92.21;100928.63;5065901;28;20304;-64
2022/10/30 07:27:14;;;;;;;17.53;9.50;;;;;;;16.11;92.61;100919.75;5064448;28;20961;-64
2022/10/30 07:29:43;;;;;;;12.70;8.67;;;;;;;16.15;92.35;100929.97;5060569;28;20212;-63
2022/10/30 07:32:12;;;;;;;17.27;9.43;;;;;;;16.17;91.95;100932.47;5063076;28;20212;-63
2022/10/30 07:34:39;;;;;;;14.87;9.40;;;;;;;16.17;92.21;100927.94;5063854;28;20340;-63
2022/10/30 07:37:07;;;;;;;17.50;9.03;;;;;;;16.21;92.14;100930.25;5057391;28;20612;-63
2022/10/30 07:39:34;;;;;;;13.23;9.07;;;;;;;16.21;92.42;100924.91;5059298;28;20208;-62
2022/10/30 07:42:02;;;;;;;11.57;8.77;;;;;;;16.23;92.33;100923.75;5056863;28;20677;-64
2022/10/30 07:44:30;;;;;;;16.27;9.63;;;;;;;16.28;92.65;100933.91;5057256;28;20211;-62
2022/10/30 07:46:59;;;;;;;17.27;9.47;;;;;;;16.35;91.83;100932.22;5061518;28;20200;-65
2022/10/30 07:49:26;;;;;;;14.77;9.40;;;;;;;16.42;91.31;100933.19;5062484;28;20237;-63
2022/10/30 07:51:54;;;;;;;18.40;10.17;;;;;;;16.46;91.20;100931.81;5057268;28;20212;-63
2022/10/30 07:54:22;;;;;;;17.70;9.40;;;;;;;16.50;91.00;100933.16;5060839;28;20215;-64
2022/10/30 07:56:49;;;;;;;13.13;8.57;;;;;;;16.53;91.10;100935.50;5064191;28;20273;-63
2022/10/30 07:59:17;;;;;;;16.63;9.07;;;;;;;16.56;91.45;100935.13;5054343;28;20634;-62
2022/10/30 08:01:44;;;;;;;17.83;10.07;;;;;;;16.61;91.25;100929.25;5055608;28;20240;-63
2022/10/30 08:04:13;;;;;;;20.63;9.73;;;;;;;16.66;91.43;100938.44;5065543;28;20207;-62
2022/10/30 08:06:41;;;;;;;20.53;10.13;;;;;;;16.67;91.54;100940.13;5058932;28;20281;-63
2022/10/30 08:09:09;;;;;;;20.27;9.67;;;;;;;16.72;91.36;100937.72;5057903;28;20713;-63
2022/10/30 08:11:37;;;;;;;14.27;9.43;;;;;;;16.76;91.48;100939.06;5061842;28;20200;-64
2022/10/30 08:14:05;;;;;;;16.40;9.00;;;;;;;16.78;91.52;100937.03;5058275;28;20629;-63
2022/10/30 08:16:33;;;;;;;18.30;9.17;;;;;;;16.84;91.10;100933.66;5064437;28;20252;-62
2022/10/30 08:19:00;;;;;;;14.93;9.37;;;;;;;16.83;91.35;100944.53;5059812;28;20212;-62
2022/10/30 08:21:29;;;;;;;21.03;10.10;;;;;;;16.74;92.80;100941.06;5061360;28;20255;-62
2022/10/30 08:23:57;;;;;;;20.60;10.00;;;;;;;16.83;92.52;100941.84;5068390;28;20265;-61
2022/10/30 08:26:24;;;;;;;19.03;9.97;;;;;;;16.86;92.50;100949.53;5068971;28;20635;-63
2022/10/30 08:28:52;;;;;;;20.10;10.57;;;;;;;16.91;92.08;100945.31;5061807;28;20241;-63
2022/10/30 08:31:20;;;;;;;21.43;9.83;;;;;;;17.01;92.11;100949.59;5063668;28;20241;-61
2022/10/30 08:33:47;;;;;;;20.03;10.70;;;;;;;17.15;91.63;100944.28;5056867;28;20658;-61
2022/10/30 08:36:15;;;;;;;22.27;10.87;;;;;;;17.47;89.15;100943.19;5064637;28;20265;-63
2022/10/30 08:38:44;;;;;;;22.37;9.73;;;;;;;17.57;87.42;100938.41;5054922;28;20767;-63
2022/10/30 08:41:11;;;;;;;25.30;9.57;;;;;;;17.76;87.32;100930.91;5060370;28;20576;-64
2022/10/30 08:43:39;;;;;;;22.37;9.60;;;;;;;18.14;84.80;100929.78;5056016;28;20224;-64
2022/10/30 08:46:06;;;;;;;21.07;9.07;;;;;;;18.52;82.68;100937.69;5060890;28;20276;-64
2022/10/30 08:48:34;;;;;;;15.70;7.93;;;;;;;18.93;79.32;100944.19;5058378;28;20730;-65
2022/10/30 08:51:02;;;;;;;18.07;9.70;;;;;;;19.10;77.56;100945.59;5053980;28;20210;-64
2022/10/30 08:53:29;;;;;;;18.20;8.87;;;;;;;19.27;76.81;100934.56;5055166;28;20211;-65
2022/10/30 08:55:58;;;;;;;19.10;9.03;;;;;;;19.76;74.63;100932.72;5056939;28;20567;-64
2022/10/30 08:58:26;;;;;;;20.63;8.80;;;;;;;20.67;70.33;100931.53;5055258;28;20332;-64
2022/10/30 09:00:53;;;;;;;16.73;8.93;;;;;;;21.83;65.10;100918.53;5068262;28;20215;-63
2022/10/30 09:03:27;;;;;;;19.00;8.97;;;;;;;22.40;62.17;100912.38;5055842;28;20231;-63
2022/10/30 09:05:58;;;;;;;16.73;7.77;;;;;;;22.64;60.27;100913.50;5059831;28;21001;-64
2022/10/30 09:08:25;;;;;;;16.57;8.20;;;;;;;22.60;60.65;100916.88;5057171;28;20661;-64
2022/10/30 09:10:54;;;;;;;17.85;8.27;;;;;;;23.41;58.13;100915.06;5061112;28;20638;-63
2022/10/30 09:13:24;;;;;;;22.85;8.43;;;;;;;24.61;53.90;100904.63;5050401;28;20728;-63
2022/10/30 09:15:51;;;;;;;14.55;7.00;;;;;;;25.31;51.28;100892.09;5056667;28;20639;-63
2022/10/30 09:18:19;;;;;;;18.60;8.10;;;;;;;25.20;51.67;100908.34;5067565;28;20207;-64
2022/10/30 09:20:49;;;;;;;17.35;7.70;;;;;;;25.32;50.71;100906.47;5064740;28;20265;-63
2022/10/30 09:23:16;;;;;;;13.90;7.40;;;;;;;25.69;50.27;100913.34;5059827;28;20887;-64
2022/10/30 09:25:44;;;;;;;14.40;7.85;;;;;;;26.16;48.78;100914.13;5065831;28;20313;-63
2022/10/30 09:28:12;;;;;;;12.63;7.65;;;;;;;26.61;47.63;100894.38;5067027;28;20203;-62
2022/10/30 09:30:41;;;;;;;15.20;7.55;;;;;;;26.16;48.20;100910.59;5057037;28;20208;-63
2022/10/30 09:33:09;;;;;;;16.50;7.93;;;;;;;25.80;49.28;100912.53;5051608;28;20211;-62
2022/10/30 09:35:37;;;;;;;17.63;7.18;;;;;;;25.81;49.05;100905.22;5058450;28;20722;-64
2022/10/30 09:38:04;;;;;;;21.65;7.95;;;;;;;25.86;49.58;100918.88;5059627;28;20246;-63
2022/10/30 09:40:44;;;;;;;14.70;7.72;;;;;;;26.15;48.55;100911.66;5062155;28;20203;-62
2022/10/30 09:43:25;;;;;;;15.65;7.38;;;;;;;25.48;49.82;100912.03;5059297;28;20219;-62
2022/10/30 09:46:13;;;;;;;15.23;7.50;;;;;;;24.88;51.29;100908.59;5049874;28;20200;-62
2022/10/30 09:48:58;;;;;;;15.57;7.72;;;;;;;24.49;53.18;100914.56;5052473;28;20208;-63
2022/10/30 09:51:38;;;;;;;16.20;8.25;;;;;;;24.09;54.44;100909.63;5054926;28;20267;-63
2022/10/30 09:54:15;;;;;;;18.90;8.93;;;;;;;23.62;55.83;100914.69;5050050;28;20212;-63
2022/10/30 09:56:45;;;;;;;14.10;7.03;;;;;;;23.13;57.73;100918.19;5058385;28;20203;-63
2022/10/30 09:59:26;;;;;;;15.75;8.43;;;;;;;22.82;59.18;100927.16;5060419;28;20242;-64
2022/10/30 10:02:01;;;;;;;18.73;8.63;;;;;;;22.76;59.70;100922.63;5055389;28;20212;-63
2022/10/30 10:04:38;;;;;;;15.88;7.78;;;;;;;23.17;58.59;100930.25;5050905;28;20645;-63
2022/10/30 10:07:13;;;;;;;15.43;8.13;;;;;;;24.40;55.23;100915.94;5052503;28;20295;-63
2022/10/30 10:09:43;;;;;;;20.17;8.55;;;;;;;25.08;52.79;100928.13;5059211;28;20214;-64
2022/10/30 10:12:18;;;;;;;17.27;7.55;;;;;;;25.27;51.62;100919.91;5064704;28;20717;-64
2022/10/30 10:14:48;;;;;;;18.40;7.78;;;;;;;25.42;50.83;100907.53;5056803;28;20592;-64
2022/10/30 10:17:24;;;;;;;17.30;8.90;;;;;;;25.35;51.52;100909.53;5057528;28;20199;-63
2022/10/30 10:19:59;;;;;;;21.02;8.43;;;;;;;25.21;51.60;100910.00;5053679;28;20204;-63
2022/10/30 10:22:33;;;;;;;18.83;7.50;;;;;;;24.93;51.94;100910.66;5062067;28;20290;-64
2022/10/30 10:25:03;;;;;;;15.52;8.05;;;;;;;24.51;52.80;100916.00;5060224;28;20349;-64
2022/10/30 10:27:47;;;;;;;17.73;8.05;;;;;;;23.90;55.60;100906.09;5061370;28;20210;-64
2022/10/30 10:30:19;;;;;;;16.85;7.70;;;;;;;23.47;56.98;100899.84;5059282;28;20257;-63
2022/10/30 10:33:25;;;;;;;15.52;8.90;;;;;;;22.99;59.48;100907.69;5051426;28;20208;-63
2022/10/30 10:36:16;;;;;;;16.67;8.07;;;;;;;22.88;60.43;100899.22;5061098;28;20259;-63
2022/10/30 10:38:57;;;;;;;16.25;7.97;;;;;;;23.12;59.81;100899.50;5057548;28;20236;-63
2022/10/30 10:41:35;;;;;;;25.65;10.63;;;;;;;23.33;59.42;100911.81;5060006;28;20230;-62
2022/10/30 10:44:20;;;;;;;19.10;8.63;;;;;;;23.97;56.51;100904.13;5060343;28;20231;-62
2022/10/30 10:47:02;;;;;;;19.92;8.70;;;;;;;24.17;55.62;100893.06;5056389;28;20622;-62
2022/10/30 10:49:50;;;;;;;19.00;8.40;;;;;;;24.27;55.98;100898.00;5059247;28;20998;-63
2022/10/30 10:52:21;;;;;;;19.02;8.25;;;;;;;24.13;55.96;100891.84;5062486;28;20207;-63
2022/10/30 10:54:52;;;;;;;15.35;7.80;;;;;;;24.11;56.42;100902.06;5079557;28;20817;-63
2022/10/30 10:57:27;;;;;;;23.17;8.73;;;;;;;24.28;55.94;100897.72;5060129;28;20208;-63
2022/10/30 10:59:58;;;;;;;22.42;8.13;;;;;;;24.69;54.96;100902.41;5056977;28;20576;-63
2022/10/30 11:02:34;;;;;;;25.23;8.55;;;;;;;25.54;52.20;100888.53;5060791;28;20212;-62
2022/10/30 11:05:08;;;;;;;18.30;7.43;;;;;;;25.80;51.36;100888.09;5058257;28;20215;-63
2022/10/30 11:07:44;;;;;;;20.15;8.23;;;;;;;25.75;51.49;100893.41;5059295;28;20242;-62
2022/10/30 11:10:14;;;;;;;21.38;7.80;;;;;;;25.72;51.83;100895.75;5065556;28;20280;-62
2022/10/30 11:12:42;;;;;;;18.25;7.30;;;;;;;25.67;51.91;100891.06;5059115;28;20208;-62
2022/10/30 11:15:24;;;;;;;15.25;7.95;;;;;;;25.60;51.43;100887.63;5073225;28;20229;-63
2022/10/30 11:18:00;;;;;;;15.88;8.48;;;;;;;25.27;52.87;100881.91;5063399;28;20219;-63
2022/10/30 11:20:37;;;;;;;20.00;9.57;;;;;;;25.37;52.98;100883.00;5059825;28;20253;-62
2022/10/30 11:23:38;;;;;;;22.40;8.70;;;;;;;25.59;52.47;100879.69;5056805;28;20208;-63
2022/10/30 11:26:29;;;;;;;16.48;9.02;;;;;;;25.55;52.39;100878.50;5059382;28;20243;-64
2022/10/30 11:29:01;;;;;;;15.88;7.63;;;;;;;25.06;53.93;100886.88;5065074;28;20203;-62